sensor_id;sensor_type;location;lat;lon;timestamp;pressure;altitude;pressure_sealevel;temperature;humidity
2549;BME280;1284;53.520;10.248;2023-04-01T00:00:16;98820.97;;;13.23;99.38
2549;BME280;1284;53.520;10.248;2023-04-01T00:02:42;98828.88;;;13.14;99.83
2549;BME280;1284;53.520;10.248;2023-04-01T00:05:08;98824.66;;;13.13;100.00
2549;BME280;1284;53.520;10.248;2023-04-01T00:07:36;98821.78;;;13.00;100.00
2549;BME280;1284;53.520;10.248;2023-04-01T00:10:03;98830.19;;;13.06;100.00
2549;BME280;1284;53.520;10.248;2023-04-01T00:12:28;98817.94;;;13.21;100.00
2549;BME280;1284;53.520;10.248;2023-04-01T00:14:54;98816.81;;;13.18;100.00
2549;BME280;1284;53.520;10.248;2023-04-01T00:17:19;98829.22;;;13.16;100.00
2549;BME280;1284;53.520;10.248;2023-04-01T00:19:45;98831.09;;;13.19;100.00
2549;BME280;1284;53.520;10.248;2023-04-01T00:22:10;98836.28;;;13.29;100.00
2549;BME280;1284;53.520;10.248;2023-04-01T00:24:37;98829.44;;;13.25;100.00
2549;BME280;1284;53.520;10.248;2023-04-01T00:27:03;98822.78;;;13.29;99.17
2549;BME280;1284;53.520;10.248;2023-04-01T00:29:29;98831.09;;;13.19;99.93
2549;BME280;1284;53.520;10.248;2023-04-01T00:31:56;98833.78;;;13.19;99.96
2549;BME280;1284;53.520;10.248;2023-04-01T00:34:22;98839.97;;;13.19;100.00
2549;BME280;1284;53.520;10.248;2023-04-01T00:36:49;98825.53;;;13.26;99.23
2549;BME280;1284;53.520;10.248;2023-04-01T00:39:15;98827.34;;;13.13;99.56
2549;BME280;1284;53.520;10.248;2023-04-01T00:41:41;98827.34;;;13.13;100.00
2549;BME280;1284;53.520;10.248;2023-04-01T00:44:33;98824.66;;;13.13;99.46
2549;BME280;1284;53.520;10.248;2023-04-01T00:47:00;98825.50;;;13.10;100.00
2549;BME280;1284;53.520;10.248;2023-04-01T00:49:33;98822.78;;;13.10;100.00
2549;BME280;1284;53.520;10.248;2023-04-01T00:52:02;98821.44;;;12.98;100.00
2549;BME280;1284;53.520;10.248;2023-04-01T00:54:29;98819.25;;;13.13;100.00
2549;BME280;1284;53.520;10.248;2023-04-01T00:57:03;98825.06;;;13.11;100.00
2549;BME280;1284;53.520;10.248;2023-04-01T00:59:39;98831.13;;;12.96;100.00
2549;BME280;1284;53.520;10.248;2023-04-01T01:02:08;98832.56;;;13.04;100.00
2549;BME280;1284;53.520;10.248;2023-04-01T01:04:35;98828.66;;;13.05;100.00
2549;BME280;1284;53.520;10.248;2023-04-01T01:22:55;98824.72;;;13.09;100.00
2549;BME280;1284;53.520;10.248;2023-04-01T01:25:42;98832.69;;;13.16;100.00
2549;BME280;1284;53.520;10.248;2023-04-01T01:29:07;98827.91;;;13.24;100.00
2549;BME280;1284;53.520;10.248;2023-04-01T01:37:13;98831.59;;;13.14;100.00
2549;BME280;1284;53.520;10.248;2023-04-01T01:39:42;98824.72;;;13.09;100.00
2549;BME280;1284;53.520;10.248;2023-04-01T01:42:12;98829.63;;;13.14;99.99
2549;BME280;1284;53.520;10.248;2023-04-01T01:47:05;98831.66;;;13.10;100.00
2549;BME280;1284;53.520;10.248;2023-04-01T01:49:32;98828.38;;;13.19;99.92
2549;BME280;1284;53.520;10.248;2023-04-01T01:51:59;98836.50;;;13.19;99.85
2549;BME280;1284;53.520;10.248;2023-04-01T01:54:25;98837.81;;;13.11;99.99
2549;BME280;1284;53.520;10.248;2023-04-01T01:57:10;98831.72;;;13.07;100.00
2549;BME280;1284;53.520;10.248;2023-04-01T01:59:41;98832.88;;;12.86;100.00
2549;BME280;1284;53.520;10.248;2023-04-01T02:02:13;98838.06;;;12.97;100.00
2549;BME280;1284;53.520;10.248;2023-04-01T02:04:41;98834.06;;;13.05;100.00
2549;BME280;1284;53.520;10.248;2023-04-01T02:07:12;98836.72;;;13.08;100.00
2549;BME280;1284;53.520;10.248;2023-04-01T02:09:39;98840.16;;;13.09;100.00
2549;BME280;1284;53.520;10.248;2023-04-01T02:12:11;98845.19;;;13.10;100.00
2549;BME280;1284;53.520;10.248;2023-04-01T02:14:44;98843.38;;;13.04;100.00
2549;BME280;1284;53.520;10.248;2023-04-01T02:17:17;98844.88;;;13.05;100.00
2549;BME280;1284;53.520;10.248;2023-04-01T02:19:53;98837.19;;;13.03;100.00
2549;BME280;1284;53.520;10.248;2023-04-01T02:22:26;98837.19;;;13.03;100.00
2549;BME280;1284;53.520;10.248;2023-04-01T02:24:54;98845.84;;;12.95;100.00
2549;BME280;1284;53.520;10.248;2023-04-01T02:27:23;98841.88;;;12.99;100.00
2549;BME280;1284;53.520;10.248;2023-04-01T02:29:50;98849.53;;;13.04;100.00
2549;BME280;1284;53.520;10.248;2023-04-01T02:32:17;98849.53;;;13.04;100.00
2549;BME280;1284;53.520;10.248;2023-04-01T02:34:44;98850.94;;;13.12;100.00
2549;BME280;1284;53.520;10.248;2023-04-01T02:37:11;98845.84;;;13.14;99.93
2549;BME280;1284;53.520;10.248;2023-04-01T02:39:36;98851.94;;;12.99;100.00
2549;BME280;1284;53.520;10.248;2023-04-01T02:42:02;98856.50;;;13.02;100.00
2549;BME280;1284;53.520;10.248;2023-04-01T02:44:28;98857.56;;;13.08;100.00
2549;BME280;1284;53.520;10.248;2023-04-01T02:46:54;98854.88;;;13.08;100.00
2549;BME280;1284;53.520;10.248;2023-04-01T02:49:19;98852.25;;;13.01;100.00
2549;BME280;1284;53.520;10.248;2023-04-01T02:51:45;98860.50;;;12.94;100.00
2549;BME280;1284;53.520;10.248;2023-04-01T02:54:10;98870.63;;;12.90;100.00
2549;BME280;1284;53.520;10.248;2023-04-01T02:56:36;98868.25;;;12.92;100.00
2549;BME280;1284;53.520;10.248;2023-04-01T02:59:01;98872.16;;;12.91;100.00
2549;BME280;1284;53.520;10.248;2023-04-01T03:01:27;98868.63;;;12.94;100.00
2549;BME280;1284;53.520;10.248;2023-04-01T03:03:52;98861.75;;;12.89;100.00
2549;BME280;1284;53.520;10.248;2023-04-01T03:06:18;98875.56;;;12.95;100.00
2549;BME280;1284;53.520;10.248;2023-04-01T03:08:44;98875.22;;;12.93;100.00
2549;BME280;1284;53.520;10.248;2023-04-01T03:11:10;98871.38;;;12.90;100.00
2549;BME280;1284;53.520;10.248;2023-04-01T03:13:36;98882.53;;;12.92;100.00
2549;BME280;1284;53.520;10.248;2023-04-01T03:16:02;98872.44;;;12.96;100.00
2549;BME280;1284;53.520;10.248;2023-04-01T03:18:28;98871.63;;;12.76;100.00
2549;BME280;1284;53.520;10.248;2023-04-01T03:20:53;98880.00;;;12.82;100.00
2549;BME280;1284;53.520;10.248;2023-04-01T03:23:19;98875.03;;;12.80;100.00
2549;BME280;1284;53.520;10.248;2023-04-01T03:25:46;98872.63;;;12.86;100.00
2549;BME280;1284;53.520;10.248;2023-04-01T03:28:14;98881.78;;;12.92;100.00
2549;BME280;1284;53.520;10.248;2023-04-01T03:30:39;98877.94;;;12.89;100.00
2549;BME280;1284;53.520;10.248;2023-04-01T03:33:06;98884.72;;;12.78;100.00
2549;BME280;1284;53.520;10.248;2023-04-01T03:35:32;98885.41;;;12.82;100.00
2549;BME280;1284;53.520;10.248;2023-04-01T03:37:58;98884.72;;;12.78;100.00
2549;BME280;1284;53.520;10.248;2023-04-01T03:40:23;98886.84;;;12.66;100.00
2549;BME280;1284;53.520;10.248;2023-04-01T03:42:51;98881.50;;;12.63;100.00
2549;BME280;1284;53.520;10.248;2023-04-01T03:45:17;98889.97;;;12.65;100.00
2549;BME280;1284;53.520;10.248;2023-04-01T03:47:43;98882.63;;;12.65;100.00
2549;BME280;1284;53.520;10.248;2023-04-01T03:50:09;98889.44;;;12.74;100.00
2549;BME280;1284;53.520;10.248;2023-04-01T03:52:35;98898.53;;;12.83;100.00
2549;BME280;1284;53.520;10.248;2023-04-01T03:55:01;98889.72;;;12.79;100.00
2549;BME280;1284;53.520;10.248;2023-04-01T03:57:27;98888.59;;;12.77;100.00
2549;BME280;1284;53.520;10.248;2023-04-01T03:59:56;98894.16;;;12.89;100.00
2549;BME280;1284;53.520;10.248;2023-04-01T04:02:22;98895.63;;;12.94;100.00
2549;BME280;1284;53.520;10.248;2023-04-01T04:04:47;98899.81;;;12.98;100.00
2549;BME280;1284;53.520;10.248;2023-04-01T04:07:13;98903.28;;;12.99;100.00
2549;BME280;1284;53.520;10.248;2023-04-01T04:10:05;98901.63;;;12.82;100.00
2549;BME280;1284;53.520;10.248;2023-04-01T04:12:30;98906.22;;;12.85;100.00
2549;BME280;1284;53.520;10.248;2023-04-01T04:14:56;98903.03;;;12.90;100.00
2549;BME280;1284;53.520;10.248;2023-04-01T04:17:22;98911.84;;;12.94;100.00
2549;BME280;1284;53.520;10.248;2023-04-01T04:19:47;98905.34;;;12.68;100.00
2549;BME280;1284;53.520;10.248;2023-04-01T04:22:13;98912.22;;;12.73;100.00
2549;BME280;1284;53.520;10.248;2023-04-01T04:24:39;98910.34;;;12.69;100.00
2549;BME280;1284;53.520;10.248;2023-04-01T04:27:10;98907.09;;;12.78;100.00
2549;BME280;1284;53.520;10.248;2023-04-01T04:29:43;98919.31;;;12.86;100.00
2549;BME280;1284;53.520;10.248;2023-04-01T04:32:09;98923.09;;;12.69;100.00
2549;BME280;1284;53.520;10.248;2023-04-01T04:34:35;98918.69;;;12.79;100.00
2549;BME280;1284;53.520;10.248;2023-04-01T04:37:00;98925.31;;;12.74;100.00
2549;BME280;1284;53.520;10.248;2023-04-01T04:39:30;98922.84;;;12.60;100.00
2549;BME280;1284;53.520;10.248;2023-04-01T04:41:55;98922.09;;;12.59;100.00
2549;BME280;1284;53.520;10.248;2023-04-01T04:44:22;98927.53;;;12.56;100.00
2549;BME280;1284;53.520;10.248;2023-04-01T04:46:48;98932.06;;;12.62;100.00
2549;BME280;1284;53.520;10.248;2023-04-01T04:49:15;98938.63;;;12.61;100.00
2549;BME280;1284;53.520;10.248;2023-04-01T04:51:41;98942.63;;;12.53;100.00
2549;BME280;1284;53.520;10.248;2023-04-01T04:54:07;98934.41;;;12.60;100.00
2549;BME280;1284;53.520;10.248;2023-04-01T04:56:58;98932.63;;;12.50;100.00
2549;BME280;1284;53.520;10.248;2023-04-01T04:59:25;98944.25;;;12.47;100.00
2549;BME280;1284;53.520;10.248;2023-04-01T05:02:14;98945.19;;;12.60;100.00
2549;BME280;1284;53.520;10.248;2023-04-01T05:04:39;98949.09;;;12.59;100.00
2549;BME280;1284;53.520;10.248;2023-04-01T05:07:08;98953.59;;;12.66;100.00
2549;BME280;1284;53.520;10.248;2023-04-01T05:09:33;98962.03;;;12.72;100.00
2549;BME280;1284;53.520;10.248;2023-04-01T05:11:59;98960.84;;;12.73;100.00
2549;BME280;1284;53.520;10.248;2023-04-01T05:14:27;98959.91;;;12.83;100.00
2549;BME280;1284;53.520;10.248;2023-04-01T05:17:01;98963.94;;;12.71;100.00
2549;BME280;1284;53.520;10.248;2023-04-01T05:19:27;98961.00;;;12.62;100.00
2549;BME280;1284;53.520;10.248;2023-04-01T05:21:52;98970.13;;;12.72;100.00
2549;BME280;1284;53.520;10.248;2023-04-01T05:24:19;98969.81;;;12.66;100.00
2549;BME280;1284;53.520;10.248;2023-04-01T05:26:45;98966.81;;;12.60;100.00
2549;BME280;1284;53.520;10.248;2023-04-01T05:29:11;98976.75;;;12.67;100.00
2549;BME280;1284;53.520;10.248;2023-04-01T05:31:37;98975.69;;;12.61;100.00
2549;BME280;1284;53.520;10.248;2023-04-01T05:34:03;98984.34;;;12.49;100.00
2549;BME280;1284;53.520;10.248;2023-04-01T05:36:29;98981.09;;;12.04;100.00
2549;BME280;1284;53.520;10.248;2023-04-01T05:38:55;98985.97;;;11.86;100.00
2549;BME280;1284;53.520;10.248;2023-04-01T05:41:22;98989.41;;;11.53;100.00
2549;BME280;1284;53.520;10.248;2023-04-01T05:43:47;98984.53;;;11.41;100.00
2549;BME280;1284;53.520;10.248;2023-04-01T05:46:31;99003.06;;;11.35;100.00
2549;BME280;1284;53.520;10.248;2023-04-01T05:49:16;98997.38;;;10.82;100.00
2549;BME280;1284;53.520;10.248;2023-04-01T05:51:41;99003.97;;;11.22;100.00
2549;BME280;1284;53.520;10.248;2023-04-01T05:54:07;99010.00;;;11.33;100.00
2549;BME280;1284;53.520;10.248;2023-04-01T05:56:33;99013.31;;;11.51;100.00
2549;BME280;1284;53.520;10.248;2023-04-01T05:58:59;99018.00;;;11.43;100.00
2549;BME280;1284;53.520;10.248;2023-04-01T06:01:25;99019.41;;;11.18;100.00
2549;BME280;1284;53.520;10.248;2023-04-01T06:03:50;99022.53;;;11.09;100.00
2549;BME280;1284;53.520;10.248;2023-04-01T06:06:23;99024.00;;;10.69;100.00
2549;BME280;1284;53.520;10.248;2023-04-01T06:08:49;99037.34;;;10.87;100.00
2549;BME280;1284;53.520;10.248;2023-04-01T06:11:27;99032.56;;;11.09;100.00
2549;BME280;1284;53.520;10.248;2023-04-01T06:14:07;99028.81;;;10.99;100.00
2549;BME280;1284;53.520;10.248;2023-04-01T06:21:42;99049.06;;;10.59;100.00
2549;BME280;1284;53.520;10.248;2023-04-01T06:46:49;99079.31;;;10.12;100.00
2549;BME280;1284;53.520;10.248;2023-04-01T06:55:50;99093.81;;;10.32;100.00
2549;BME280;1284;53.520;10.248;2023-04-01T06:58:46;99090.81;;;10.16;100.00
2549;BME280;1284;53.520;10.248;2023-04-01T07:01:20;99102.34;;;10.02;100.00
2549;BME280;1284;53.520;10.248;2023-04-01T07:03:56;99102.72;;;10.15;100.00
2549;BME280;1284;53.520;10.248;2023-04-01T07:08:55;99111.88;;;10.32;100.00
2549;BME280;1284;53.520;10.248;2023-04-01T07:11:32;99123.84;;;10.13;100.00
2549;BME280;1284;53.520;10.248;2023-04-01T07:14:36;99124.66;;;10.10;100.00
2549;BME280;1284;53.520;10.248;2023-04-01T07:17:23;99130.78;;;10.00;100.00
2549;BME280;1284;53.520;10.248;2023-04-01T07:22:42;99135.03;;;9.87;100.00
2549;BME280;1284;53.520;10.248;2023-04-01T07:25:25;99145.38;;;10.13;100.00
2549;BME280;1284;53.520;10.248;2023-04-01T07:28:12;99155.38;;;10.16;100.00
2549;BME280;1284;53.520;10.248;2023-04-01T07:33:19;99152.31;;;9.96;100.00
2549;BME280;1284;53.520;10.248;2023-04-01T07:35:58;99163.84;;;9.90;100.00
2549;BME280;1284;53.520;10.248;2023-04-01T07:39:04;99161.91;;;9.94;100.00
2549;BME280;1284;53.520;10.248;2023-04-01T07:42:04;99173.81;;;10.18;99.89
2549;BME280;1284;53.520;10.248;2023-04-01T07:44:41;99170.34;;;10.28;99.07
2549;BME280;1284;53.520;10.248;2023-04-01T07:55:20;99189.22;;;9.50;100.00
2549;BME280;1284;53.520;10.248;2023-04-01T07:57:55;99194.94;;;9.49;100.00
2549;BME280;1284;53.520;10.248;2023-04-01T08:06:34;99214.16;;;10.18;99.09
2549;BME280;1284;53.520;10.248;2023-04-01T08:09:43;99219.16;;;9.94;98.55
2549;BME280;1284;53.520;10.248;2023-04-01T08:13:01;99224.53;;;10.12;98.00
2549;BME280;1284;53.520;10.248;2023-04-01T08:21:38;99227.22;;;9.73;99.00
2549;BME280;1284;53.520;10.248;2023-04-01T08:27:06;99240.25;;;9.61;99.41
2549;BME280;1284;53.520;10.248;2023-04-01T08:29:55;99257.13;;;9.51;99.88
2549;BME280;1284;53.520;10.248;2023-04-01T08:32:35;99252.50;;;9.23;100.00
2549;BME280;1284;53.520;10.248;2023-04-01T08:37:41;99266.34;;;9.50;100.00
2549;BME280;1284;53.520;10.248;2023-04-01T08:40:25;99254.84;;;9.53;100.00
2549;BME280;1284;53.520;10.248;2023-04-01T08:45:56;99266.34;;;9.46;99.92
2549;BME280;1284;53.520;10.248;2023-04-01T08:48:40;99270.97;;;9.67;100.00
2549;BME280;1284;53.520;10.248;2023-04-01T09:00:09;99279.00;;;9.49;100.00
2549;BME280;1284;53.520;10.248;2023-04-01T09:06:01;99278.16;;;9.14;100.00
2549;BME280;1284;53.520;10.248;2023-04-01T09:08:45;99293.19;;;9.39;99.77
2549;BME280;1284;53.520;10.248;2023-04-01T09:14:23;99292.00;;;9.26;100.00
2549;BME280;1284;53.520;10.248;2023-04-01T09:22:51;99305.50;;;9.47;100.00
2549;BME280;1284;53.520;10.248;2023-04-01T09:28:10;99325.09;;;9.51;100.00
2549;BME280;1284;53.520;10.248;2023-04-01T09:30:53;99322.44;;;9.69;100.00
2549;BME280;1284;53.520;10.248;2023-04-01T09:33:47;99320.13;;;9.67;99.42
2549;BME280;1284;53.520;10.248;2023-04-01T09:36:44;99317.47;;;9.78;99.90
2549;BME280;1284;53.520;10.248;2023-04-01T09:39:31;99324.34;;;9.58;99.77
2549;BME280;1284;53.520;10.248;2023-04-01T09:42:06;99339.25;;;9.45;98.69
2549;BME280;1284;53.520;10.248;2023-04-01T09:44:45;99339.31;;;9.55;98.72
2549;BME280;1284;53.520;10.248;2023-04-01T09:50:20;99355.75;;;9.40;100.00
2549;BME280;1284;53.520;10.248;2023-04-01T10:31:33;99401.84;;;9.45;99.24
2549;BME280;1284;53.520;10.248;2023-04-01T10:36:58;99404.66;;;9.77;98.13
2549;BME280;1284;53.520;10.248;2023-04-01T11:05:04;99435.41;;;9.93;98.72
2549;BME280;1284;53.520;10.248;2023-04-01T11:19:34;99463.34;;;9.68;97.79
2549;BME280;1284;53.520;10.248;2023-04-01T11:28:25;99471.06;;;9.73;99.20
2549;BME280;1284;53.520;10.248;2023-04-01T11:31:29;99485.69;;;9.75;98.25
2549;BME280;1284;53.520;10.248;2023-04-01T11:34:05;99474.00;;;9.47;98.14
2549;BME280;1284;53.520;10.248;2023-04-01T11:42:40;99487.09;;;9.55;98.49
2549;BME280;1284;53.520;10.248;2023-04-01T12:04:46;99527.28;;;9.31;96.34
2549;BME280;1284;53.520;10.248;2023-04-01T12:15:36;99544.66;;;9.51;95.88
2549;BME280;1284;53.520;10.248;2023-04-01T12:20:50;99546.53;;;9.47;96.47
2549;BME280;1284;53.520;10.248;2023-04-01T12:23:39;99556.09;;;9.37;95.18
2549;BME280;1284;53.520;10.248;2023-04-01T12:26:30;99561.81;;;9.32;95.79
2549;BME280;1284;53.520;10.248;2023-04-01T12:29:25;99567.50;;;9.24;95.60
2549;BME280;1284;53.520;10.248;2023-04-01T12:35:04;99583.69;;;9.34;96.12
2549;BME280;1284;53.520;10.248;2023-04-01T12:38:01;99581.81;;;9.38;96.66
2549;BME280;1284;53.520;10.248;2023-04-01T12:40:54;99592.91;;;9.33;97.00
2549;BME280;1284;53.520;10.248;2023-04-01T12:52:22;99604.31;;;9.74;93.33
2549;BME280;1284;53.520;10.248;2023-04-01T13:17:39;99645.97;;;9.47;92.96
2549;BME280;1284;53.520;10.248;2023-04-01T13:25:24;99648.47;;;9.69;91.72
2549;BME280;1284;53.520;10.248;2023-04-01T13:28:16;99663.63;;;9.44;91.97
2549;BME280;1284;53.520;10.248;2023-04-01T13:36:11;99673.88;;;8.95;92.88
2549;BME280;1284;53.520;10.248;2023-04-01T14:06:23;99715.66;;;8.92;92.79
2549;BME280;1284;53.520;10.248;2023-04-01T14:14:26;99739.16;;;9.02;92.41
2549;BME280;1284;53.520;10.248;2023-04-01T14:20:31;99740.00;;;9.06;91.24
2549;BME280;1284;53.520;10.248;2023-04-01T14:23:09;99744.31;;;9.15;90.56
2549;BME280;1284;53.520;10.248;2023-04-01T14:28:46;99753.56;;;8.87;92.58
2549;BME280;1284;53.520;10.248;2023-04-01T14:51:35;99783.56;;;8.93;91.51
2549;BME280;1284;53.520;10.248;2023-04-01T14:54:32;99793.88;;;8.91;92.56
2549;BME280;1284;53.520;10.248;2023-04-01T14:57:23;99796.50;;;8.58;92.70
2549;BME280;1284;53.520;10.248;2023-04-01T14:59:51;99799.75;;;8.70;92.57
2549;BME280;1284;53.520;10.248;2023-04-01T15:24:02;99840.00;;;8.44;92.83
2549;BME280;1284;53.520;10.248;2023-04-01T15:43:15;99866.81;;;8.44;92.63
2549;BME280;1284;53.520;10.248;2023-04-01T15:46:56;99878.84;;;8.54;91.91
2549;BME280;1284;53.520;10.248;2023-04-01T15:55:31;99889.31;;;8.17;94.00
2549;BME280;1284;53.520;10.248;2023-04-01T16:00:29;99897.16;;;8.48;91.53
2549;BME280;1284;53.520;10.248;2023-04-01T16:10:59;99920.69;;;8.32;91.70
2549;BME280;1284;53.520;10.248;2023-04-01T16:24:35;99946.06;;;8.19;90.80
2549;BME280;1284;53.520;10.248;2023-04-01T16:27:16;99944.94;;;8.20;90.96
2549;BME280;1284;53.520;10.248;2023-04-01T16:29:55;99946.25;;;8.07;91.57
2549;BME280;1284;53.520;10.248;2023-04-01T16:37:50;99962.03;;;8.12;91.31
2549;BME280;1284;53.520;10.248;2023-04-01T16:43:19;99979.88;;;8.04;91.30
2549;BME280;1284;53.520;10.248;2023-04-01T16:57:59;100013.03;;;7.58;93.36
2549;BME280;1284;53.520;10.248;2023-04-01T17:00:27;100021.78;;;7.40;93.40
2549;BME280;1284;53.520;10.248;2023-04-01T17:05:42;100034.53;;;7.62;93.25
2549;BME280;1284;53.520;10.248;2023-04-01T17:08:17;100028.56;;;7.68;93.06
2549;BME280;1284;53.520;10.248;2023-04-01T17:16:38;100054.25;;;7.54;92.98
2549;BME280;1284;53.520;10.248;2023-04-01T17:22:25;100066.16;;;7.56;91.81
2549;BME280;1284;53.520;10.248;2023-04-01T17:27:44;100079.44;;;7.34;92.65
2549;BME280;1284;53.520;10.248;2023-04-01T17:30:43;100091.00;;;7.06;92.55
2549;BME280;1284;53.520;10.248;2023-04-01T17:33:20;100090.81;;;7.15;92.30
2549;BME280;1284;53.520;10.248;2023-04-01T17:36:39;100103.34;;;7.11;92.90
2549;BME280;1284;53.520;10.248;2023-04-01T17:39:01;100105.84;;;7.19;91.83
2549;BME280;1284;53.520;10.248;2023-04-01T17:44:38;100109.81;;;6.94;91.60
2549;BME280;1284;53.520;10.248;2023-04-01T17:49:59;100125.34;;;7.36;89.88
2549;BME280;1284;53.520;10.248;2023-04-01T17:52:44;100126.84;;;7.17;90.91
2549;BME280;1284;53.520;10.248;2023-04-01T18:03:44;100151.44;;;7.07;89.87
2549;BME280;1284;53.520;10.248;2023-04-01T18:12:23;100182.66;;;7.31;88.37
2549;BME280;1284;53.520;10.248;2023-04-01T18:22:55;100212.63;;;7.37;88.97
2549;BME280;1284;53.520;10.248;2023-04-01T18:25:28;100216.00;;;7.34;88.40
2549;BME280;1284;53.520;10.248;2023-04-01T18:30:59;100225.91;;;6.90;87.22
2549;BME280;1284;53.520;10.248;2023-04-01T18:33:42;100238.06;;;6.87;86.80
2549;BME280;1284;53.520;10.248;2023-04-01T18:39:07;100253.03;;;6.76;87.54
2549;BME280;1284;53.520;10.248;2023-04-01T18:52:42;100282.28;;;6.57;87.22
2549;BME280;1284;53.520;10.248;2023-04-01T19:00:47;100285.56;;;6.38;86.29
2549;BME280;1284;53.520;10.248;2023-04-01T19:03:31;100287.72;;;6.61;83.93
2549;BME280;1284;53.520;10.248;2023-04-01T19:06:06;100295.47;;;6.38;83.83
2549;BME280;1284;53.520;10.248;2023-04-01T19:08:35;100302.38;;;6.27;83.20
2549;BME280;1284;53.520;10.248;2023-04-01T19:16:39;100320.06;;;6.44;82.83
2549;BME280;1284;53.520;10.248;2023-04-01T19:25:35;100334.00;;;6.37;81.93
2549;BME280;1284;53.520;10.248;2023-04-01T19:28:15;100341.91;;;6.33;81.69
2549;BME280;1284;53.520;10.248;2023-04-01T19:30:54;100354.41;;;6.42;81.26
2549;BME280;1284;53.520;10.248;2023-04-01T19:38:58;100357.16;;;6.21;81.14
2549;BME280;1284;53.520;10.248;2023-04-01T19:41:46;100368.31;;;6.35;79.82
2549;BME280;1284;53.520;10.248;2023-04-01T19:44:50;100368.84;;;6.16;78.90
2549;BME280;1284;53.520;10.248;2023-04-01T19:47:55;100377.53;;;5.81;79.36
2549;BME280;1284;53.520;10.248;2023-04-01T19:58:49;100405.44;;;5.92;77.42
2549;BME280;1284;53.520;10.248;2023-04-01T20:01:32;100414.31;;;5.84;76.64
2549;BME280;1284;53.520;10.248;2023-04-01T20:04:07;100412.00;;;5.74;77.38
2549;BME280;1284;53.520;10.248;2023-04-01T20:07:24;100417.66;;;5.39;77.65
2549;BME280;1284;53.520;10.248;2023-04-01T20:15:58;100427.19;;;5.20;78.72
2549;BME280;1284;53.520;10.248;2023-04-01T20:21:31;100457.00;;;5.22;79.17
2549;BME280;1284;53.520;10.248;2023-04-01T20:24:21;100467.56;;;5.39;78.28
2549;BME280;1284;53.520;10.248;2023-04-01T20:27:03;100460.47;;;5.22;79.15
2549;BME280;1284;53.520;10.248;2023-04-01T20:29:41;100478.75;;;5.32;78.02
2549;BME280;1284;53.520;10.248;2023-04-01T20:35:08;100486.84;;;5.44;78.38
2549;BME280;1284;53.520;10.248;2023-04-01T20:40:37;100484.84;;;5.62;78.02
2549;BME280;1284;53.520;10.248;2023-04-01T20:43:33;100495.31;;;5.67;77.48
2549;BME280;1284;53.520;10.248;2023-04-01T20:46:11;100493.78;;;5.66;77.12
2549;BME280;1284;53.520;10.248;2023-04-01T20:48:49;100499.16;;;5.58;76.88
2549;BME280;1284;53.520;10.248;2023-04-01T20:51:30;100521.56;;;5.44;78.03
2549;BME280;1284;53.520;10.248;2023-04-01T20:54:11;100507.75;;;5.42;78.32
2549;BME280;1284;53.520;10.248;2023-04-01T20:57:21;100525.94;;;5.20;79.27
2549;BME280;1284;53.520;10.248;2023-04-01T21:02:49;100531.28;;;5.20;79.23
2549;BME280;1284;53.520;10.248;2023-04-01T21:05:37;100531.47;;;5.15;79.86
2549;BME280;1284;53.520;10.248;2023-04-01T21:08:29;100537.94;;;5.05;78.79
2549;BME280;1284;53.520;10.248;2023-04-01T21:11:18;100540.78;;;5.00;79.94
2549;BME280;1284;53.520;10.248;2023-04-01T21:16:39;100542.81;;;5.32;78.09
2549;BME280;1284;53.520;10.248;2023-04-01T21:22:01;100559.47;;;5.00;78.44
2549;BME280;1284;53.520;10.248;2023-04-01T21:25:19;100553.91;;;5.14;79.10
2549;BME280;1284;53.520;10.248;2023-04-01T21:30:22;100562.41;;;5.07;78.88
2549;BME280;1284;53.520;10.248;2023-04-01T21:33:07;100572.25;;;5.24;78.41
2549;BME280;1284;53.520;10.248;2023-04-01T21:44:02;100581.88;;;5.45;77.63
2549;BME280;1284;53.520;10.248;2023-04-01T21:46:54;100595.22;;;5.45;77.35
2549;BME280;1284;53.520;10.248;2023-04-01T21:49:39;100585.19;;;5.42;78.19
2549;BME280;1284;53.520;10.248;2023-04-01T22:01:50;100610.19;;;4.83;79.83
2549;BME280;1284;53.520;10.248;2023-04-01T22:06:50;100614.78;;;4.74;80.95
2549;BME280;1284;53.520;10.248;2023-04-01T22:09:30;100633.88;;;4.85;80.05
2549;BME280;1284;53.520;10.248;2023-04-01T22:12:15;100632.78;;;4.86;79.79
2549;BME280;1284;53.520;10.248;2023-04-01T22:17:25;100641.09;;;4.93;79.88
2549;BME280;1284;53.520;10.248;2023-04-01T22:28:38;100655.69;;;4.87;80.05
2549;BME280;1284;53.520;10.248;2023-04-01T22:31:11;100667.31;;;4.74;80.23
2549;BME280;1284;53.520;10.248;2023-04-01T22:42:19;100681.75;;;4.55;80.76
2549;BME280;1284;53.520;10.248;2023-04-01T22:50:18;100702.31;;;4.64;80.77
2549;BME280;1284;53.520;10.248;2023-04-01T22:52:50;100697.44;;;4.66;80.55
2549;BME280;1284;53.520;10.248;2023-04-01T22:55:28;100700.09;;;4.48;80.87
2549;BME280;1284;53.520;10.248;2023-04-01T22:58:04;100711.06;;;4.38;80.25
2549;BME280;1284;53.520;10.248;2023-04-01T23:00:35;100706.69;;;4.42;81.09
2549;BME280;1284;53.520;10.248;2023-04-01T23:03:21;100720.75;;;4.17;81.24
2549;BME280;1284;53.520;10.248;2023-04-01T23:05:53;100720.16;;;4.37;81.31
2549;BME280;1284;53.520;10.248;2023-04-01T23:11:06;100726.56;;;4.28;81.78
2549;BME280;1284;53.520;10.248;2023-04-01T23:13:39;100732.53;;;4.42;80.98
2549;BME280;1284;53.520;10.248;2023-04-01T23:16:08;100737.53;;;4.26;81.15
2549;BME280;1284;53.520;10.248;2023-04-01T23:18:37;100743.34;;;4.20;81.99
2549;BME280;1284;53.520;10.248;2023-04-01T23:21:30;100741.94;;;4.31;81.92
2549;BME280;1284;53.520;10.248;2023-04-01T23:24:25;100747.47;;;4.51;80.57
2549;BME280;1284;53.520;10.248;2023-04-01T23:26:53;100758.88;;;4.35;80.84
2549;BME280;1284;53.520;10.248;2023-04-01T23:29:21;100757.44;;;4.29;81.02
2549;BME280;1284;53.520;10.248;2023-04-01T23:31:55;100762.63;;;4.25;81.12
2549;BME280;1284;53.520;10.248;2023-04-01T23:34:25;100770.19;;;4.40;80.46
2549;BME280;1284;53.520;10.248;2023-04-01T23:37:11;100762.47;;;4.22;80.73
2549;BME280;1284;53.520;10.248;2023-04-01T23:39:40;100762.25;;;4.10;81.24
2549;BME280;1284;53.520;10.248;2023-04-01T23:42:30;100776.06;;;4.12;81.65
2549;BME280;1284;53.520;10.248;2023-04-01T23:45:03;100780.06;;;4.01;82.08
2549;BME280;1284;53.520;10.248;2023-04-01T23:47:32;100773.34;;;3.95;82.28